createdAt,value
2018-04-15T00:02:18.780Z,97.54
2018-04-15T00:04:46.426Z,97.48
2018-04-15T00:07:14.158Z,97.47
2018-04-15T00:09:41.818Z,97.89
2018-04-15T00:12:09.434Z,97.87
2018-04-15T00:14:37.022Z,97.89
2018-04-15T00:17:04.629Z,98.05
2018-04-15T00:19:32.249Z,98.20
2018-04-15T00:21:59.831Z,98.19
2018-04-15T00:24:27.530Z,98.23
2018-04-15T00:26:55.905Z,98.29
2018-04-15T00:29:23.496Z,98.48
2018-04-15T00:31:51.109Z,98.59
2018-04-15T00:34:18.689Z,98.52
2018-04-15T00:36:46.317Z,98.62
2018-04-15T00:39:13.901Z,98.52
2018-04-15T00:41:41.509Z,98.61
2018-04-15T00:44:09.097Z,98.65
2018-04-15T00:46:36.801Z,99.51
2018-04-15T00:49:04.399Z,99.11
2018-04-15T00:51:31.978Z,99.03
2018-04-15T00:54:11.403Z,98.88
2018-04-15T00:56:39.010Z,98.88
2018-04-15T00:59:06.598Z,98.97
2018-04-15T01:01:34.213Z,99.12
2018-04-15T01:04:01.809Z,99.24
2018-04-15T01:06:29.423Z,99.10
2018-04-15T01:08:57.005Z,98.83
2018-04-15T01:11:24.626Z,98.71
2018-04-15T01:13:52.261Z,97.92
2018-04-15T01:16:19.921Z,98.06
2018-04-15T01:18:47.524Z,97.97
2018-04-15T01:21:15.143Z,98.27
2018-04-15T01:23:42.736Z,98.88
2018-04-15T01:26:10.317Z,99.02
2018-04-15T01:28:37.928Z,99.03
2018-04-15T01:31:05.610Z,99.10
2018-04-15T01:33:33.225Z,99.19
2018-04-15T01:36:00.834Z,99.17
2018-04-15T01:38:28.458Z,99.11
2018-04-15T01:40:56.040Z,99.10
2018-04-15T01:43:23.629Z,99.05
2018-04-15T01:45:51.209Z,99.06
2018-04-15T01:48:18.788Z,99.21
2018-04-15T01:50:46.368Z,99.26
2018-04-15T01:53:13.959Z,99.33
2018-04-15T01:55:41.537Z,99.36
2018-04-15T01:58:09.169Z,99.08
2018-04-15T02:00:36.762Z,99.00
2018-04-15T02:03:05.423Z,99.08
2018-04-15T02:05:33.004Z,99.03
2018-04-15T02:08:00.589Z,98.99
2018-04-15T02:10:28.178Z,99.00
2018-04-15T02:12:55.796Z,99.09
2018-04-15T02:15:23.402Z,98.83
2018-04-15T02:17:50.990Z,98.97
2018-04-15T02:20:18.582Z,98.84
2018-04-15T02:22:46.165Z,99.19
2018-04-15T02:25:13.756Z,98.57
2018-04-15T02:27:41.490Z,98.41
2018-04-15T02:30:09.161Z,97.80
2018-04-15T02:32:36.750Z,98.21
2018-04-15T02:35:04.421Z,98.54
2018-04-15T02:37:32.011Z,97.97
2018-04-15T02:39:59.593Z,98.42
2018-04-15T02:42:27.824Z,98.58
2018-04-15T02:44:55.421Z,99.36
2018-04-15T02:47:23.007Z,99.71
2018-04-15T02:49:50.598Z,99.94
2018-04-15T02:52:18.180Z,99.32
2018-04-15T02:54:45.765Z,99.26
2018-04-15T02:57:13.373Z,99.37
2018-04-15T02:59:41.193Z,99.37
2018-04-15T03:02:08.810Z,99.60
2018-04-15T03:04:36.394Z,99.66
2018-04-15T03:07:04.006Z,99.35
2018-04-15T03:09:31.596Z,99.29
2018-04-15T03:11:59.223Z,99.41
2018-04-15T03:14:26.894Z,99.67
2018-04-15T03:16:54.476Z,99.53
2018-04-15T03:19:22.989Z,99.35
2018-04-15T03:21:51.276Z,99.46
2018-04-15T03:24:18.889Z,98.99
2018-04-15T03:26:46.479Z,99.28
2018-04-15T03:29:14.060Z,99.20
2018-04-15T03:31:42.433Z,98.91
2018-04-15T03:34:10.792Z,98.84
2018-04-15T03:36:38.377Z,99.48
2018-04-15T03:39:06.954Z,99.57
2018-04-15T03:41:34.533Z,99.76
2018-04-15T03:44:02.141Z,99.94
2018-04-15T03:46:29.761Z,99.92
2018-04-15T03:48:57.353Z,99.80
2018-04-15T03:51:25.091Z,98.83
2018-04-15T03:53:52.675Z,97.74
2018-04-15T03:56:20.261Z,98.04
2018-04-15T03:58:47.842Z,98.40
2018-04-15T04:01:15.422Z,98.65
2018-04-15T04:03:43.041Z,99.01
2018-04-15T04:06:10.621Z,99.09
2018-04-15T04:08:38.237Z,98.79
2018-04-15T04:11:05.827Z,98.64
2018-04-15T04:13:33.468Z,98.55
2018-04-15T04:16:01.053Z,98.75
2018-04-15T04:18:40.552Z,97.95
2018-04-15T04:21:20.002Z,98.06
2018-04-15T04:23:59.505Z,98.51
2018-04-15T04:26:27.110Z,98.40
2018-04-15T04:28:55.630Z,98.32
2018-04-15T04:31:23.237Z,98.56
2018-04-15T04:33:50.852Z,99.04
2018-04-15T04:36:18.464Z,98.80
2018-04-15T04:38:46.051Z,98.37
2018-04-15T04:41:13.637Z,98.83
2018-04-15T04:43:41.220Z,99.10
2018-04-15T04:46:08.797Z,98.40
2018-04-15T04:48:36.385Z,97.75
2018-04-15T04:51:03.965Z,98.29
2018-04-15T04:53:31.554Z,97.57
2018-04-15T04:55:59.132Z,96.53
2018-04-15T04:58:26.716Z,97.57
2018-04-15T05:00:54.296Z,97.94
2018-04-15T05:03:21.878Z,98.27
2018-04-15T05:05:49.473Z,98.57
2018-04-15T05:08:17.061Z,98.88
2018-04-15T05:10:44.760Z,98.96
2018-04-15T05:15:48.382Z,97.09
2018-04-15T05:18:15.963Z,97.45
2018-04-15T05:20:43.584Z,96.99
2018-04-15T05:23:11.742Z,96.70
2018-04-15T05:25:39.423Z,96.26
2018-04-15T05:28:07.781Z,96.22
2018-04-15T05:30:35.360Z,97.03
2018-04-15T05:33:03.023Z,96.92
2018-04-15T05:35:30.695Z,96.58
2018-04-15T05:37:58.277Z,95.52
2018-04-15T05:40:26.909Z,95.56
2018-04-15T05:42:54.489Z,96.04
2018-04-15T05:45:22.102Z,95.72
2018-04-15T05:47:49.719Z,96.42
2018-04-15T05:50:17.349Z,96.18
2018-04-15T05:52:44.930Z,94.23
2018-04-15T05:55:12.547Z,94.06
2018-04-15T05:57:40.134Z,95.28
2018-04-15T06:00:07.779Z,95.21
2018-04-15T06:02:35.369Z,95.15
2018-04-15T06:05:03.899Z,94.49
2018-04-15T06:07:31.486Z,95.24
2018-04-15T06:10:00.085Z,94.96
2018-04-15T06:12:27.783Z,94.45
2018-04-15T06:14:55.446Z,92.16
2018-04-15T06:17:23.092Z,90.78
2018-04-15T06:19:50.706Z,92.07
2018-04-15T06:22:18.438Z,91.30
2018-04-15T06:24:46.022Z,90.96
2018-04-15T06:27:13.645Z,90.40
2018-04-15T06:29:42.136Z,90.02
2018-04-15T06:32:10.388Z,90.65
2018-04-15T06:34:39.215Z,89.46
2018-04-15T06:37:07.791Z,89.95
2018-04-15T06:39:36.530Z,88.48
2018-04-15T06:42:05.715Z,89.83
2018-04-15T06:44:33.446Z,88.66
2018-04-15T06:47:01.114Z,88.63
2018-04-15T06:49:28.774Z,87.63
2018-04-15T06:51:56.362Z,89.47
2018-04-15T06:54:23.951Z,88.87
2018-04-15T06:56:51.537Z,88.65
2018-04-15T06:59:19.215Z,87.10
2018-04-15T07:01:46.828Z,85.52
2018-04-15T07:04:14.441Z,86.95
2018-04-15T07:06:42.102Z,86.13
2018-04-15T07:09:09.760Z,85.16
2018-04-15T07:11:37.349Z,84.79
2018-04-15T07:14:05.859Z,81.38
2018-04-15T07:16:33.502Z,82.01
2018-04-15T07:19:02.837Z,82.86
2018-04-15T07:21:31.341Z,81.98
2018-04-15T07:23:58.925Z,80.25
2018-04-15T07:26:27.447Z,80.65
2018-04-15T07:28:55.026Z,78.58
2018-04-15T07:31:22.611Z,79.74
2018-04-15T07:33:50.258Z,79.39
2018-04-15T07:36:17.917Z,77.99
2018-04-15T07:38:45.529Z,77.10
2018-04-15T07:41:13.653Z,77.95
2018-04-15T07:43:41.262Z,80.00
2018-04-15T07:46:08.879Z,77.50
2018-04-15T07:48:36.459Z,77.41
2018-04-15T07:51:04.039Z,76.31
2018-04-15T07:53:31.626Z,72.57
2018-04-15T07:55:59.229Z,73.96
2018-04-15T07:58:26.920Z,71.79
2018-04-15T08:00:54.500Z,73.06
2018-04-15T08:03:22.132Z,73.81
2018-04-15T08:05:49.718Z,72.11
2018-04-15T08:08:17.365Z,69.59
2018-04-15T08:10:51.692Z,70.95
2018-04-15T08:13:19.285Z,69.63
2018-04-15T08:15:46.863Z,70.25
2018-04-15T08:18:14.441Z,67.90
2018-04-15T08:20:42.153Z,70.15
2018-04-15T08:23:10.506Z,67.52
2018-04-15T08:25:38.090Z,70.18
2018-04-15T08:28:06.703Z,67.63
2018-04-15T08:30:34.281Z,69.70
2018-04-15T08:33:01.860Z,67.52
2018-04-15T08:35:29.437Z,68.13
2018-04-15T08:37:57.013Z,66.98
2018-04-15T08:40:24.689Z,68.12
2018-04-15T08:42:52.352Z,65.38
2018-04-15T08:45:20.018Z,66.55
2018-04-15T08:47:47.614Z,66.60
2018-04-15T08:50:15.193Z,67.19
2018-04-15T08:52:43.566Z,63.88
2018-04-15T08:55:11.984Z,65.49
2018-04-15T08:57:40.389Z,66.13
2018-04-15T09:00:07.999Z,66.01
2018-04-15T09:02:35.607Z,67.94
2018-04-15T09:05:03.887Z,64.67
2018-04-15T09:07:31.493Z,67.48
2018-04-15T09:09:59.925Z,66.12
2018-04-15T09:12:28.863Z,65.04
2018-04-15T09:14:56.485Z,64.04
2018-04-15T09:17:25.022Z,64.63
2018-04-15T09:19:52.608Z,62.88
2018-04-15T09:22:20.679Z,60.49
2018-04-15T09:24:49.128Z,57.89
2018-04-15T09:27:17.999Z,59.29
2018-04-15T09:29:46.014Z,58.81
2018-04-15T09:32:14.383Z,59.44
2018-04-15T09:34:42.825Z,57.90
2018-04-15T09:37:11.847Z,57.81
2018-04-15T09:39:40.100Z,56.52
2018-04-15T09:42:08.296Z,56.35
2018-04-15T09:44:36.926Z,56.79
2018-04-15T09:47:05.169Z,56.81
2018-04-15T09:49:33.277Z,56.95
2018-04-15T09:52:00.956Z,53.99
2018-04-15T09:54:28.540Z,52.58
2018-04-15T09:56:56.166Z,53.33
2018-04-15T09:59:23.824Z,53.71
2018-04-15T10:01:52.366Z,53.00
2018-04-15T10:04:19.977Z,50.68
2018-04-15T10:06:47.634Z,54.25
2018-04-15T10:09:15.298Z,51.74
2018-04-15T10:11:43.059Z,53.84
2018-04-15T10:14:10.645Z,51.42
2018-04-15T10:16:38.292Z,48.05
2018-04-15T10:19:05.953Z,48.53
2018-04-15T10:21:34.088Z,49.60
2018-04-15T10:24:02.776Z,50.34
2018-04-15T10:26:30.494Z,49.52
2018-04-15T10:28:58.097Z,51.94
2018-04-15T10:31:25.701Z,48.93
2018-04-15T10:33:53.366Z,45.41
2018-04-15T10:36:20.977Z,48.55
2018-04-15T10:38:48.586Z,49.16
2018-04-15T10:41:16.206Z,48.03
2018-04-15T10:43:43.917Z,47.79
2018-04-15T10:46:11.577Z,50.53
2018-04-15T10:48:39.240Z,50.81
2018-04-15T10:51:07.581Z,48.89
2018-04-15T10:53:35.285Z,49.49
2018-04-15T10:56:03.788Z,49.05
2018-04-15T10:58:31.428Z,47.83
2018-04-15T11:00:59.034Z,47.80
2018-04-15T11:03:26.649Z,47.45
2018-04-15T11:05:54.270Z,46.48
2018-04-15T11:08:21.851Z,44.55
2018-04-15T11:10:49.438Z,44.48
2018-04-15T11:13:17.017Z,46.13
2018-04-15T11:15:45.074Z,45.31
2018-04-15T11:18:12.649Z,46.52
2018-04-15T11:20:40.758Z,43.90
2018-04-15T11:23:08.374Z,43.64
2018-04-15T11:25:35.951Z,44.58
2018-04-15T11:28:03.522Z,42.68
2018-04-15T11:30:31.149Z,41.39
2018-04-15T11:32:58.814Z,42.60
2018-04-15T11:35:26.536Z,43.53
2018-04-15T11:37:54.106Z,43.99
2018-04-15T11:40:21.698Z,43.04
2018-04-15T11:42:49.365Z,46.33
2018-04-15T11:45:17.083Z,43.81
2018-04-15T11:47:44.652Z,44.01
2018-04-15T11:50:12.217Z,43.90
2018-04-15T11:52:39.789Z,41.01
2018-04-15T11:55:07.469Z,44.66
2018-04-15T11:57:35.073Z,42.12
2018-04-15T12:00:02.754Z,41.44
2018-04-15T12:02:31.234Z,43.78
2018-04-15T12:04:58.843Z,42.06
2018-04-15T12:07:28.300Z,41.57
2018-04-15T12:09:57.979Z,43.11
2018-04-15T12:12:26.146Z,39.28
2018-04-15T12:14:54.631Z,42.00
2018-04-15T12:17:22.692Z,41.92
2018-04-15T12:19:50.903Z,38.46
2018-04-15T12:22:19.766Z,41.86
2018-04-15T12:24:47.844Z,42.82
2018-04-15T12:27:15.852Z,44.24
2018-04-15T12:29:44.847Z,43.23
2018-04-15T12:32:13.860Z,40.43
2018-04-15T12:34:42.591Z,39.35
2018-04-15T12:37:11.042Z,43.28
2018-04-15T12:39:38.906Z,42.45
2018-04-15T12:42:07.443Z,41.79
2018-04-15T12:44:35.618Z,39.85
2018-04-15T12:47:03.900Z,43.24
2018-04-15T12:49:32.216Z,40.16
2018-04-15T12:52:01.738Z,39.25
2018-04-15T12:54:31.310Z,41.25
2018-04-15T12:56:59.995Z,37.92
2018-04-15T12:59:28.311Z,40.35
2018-04-15T13:01:57.554Z,37.39
2018-04-15T13:04:25.648Z,39.88
2018-04-15T13:06:53.345Z,36.75
2018-04-15T13:09:20.922Z,39.00
2018-04-15T13:11:48.501Z,38.92
2018-04-15T13:14:16.081Z,40.76
2018-04-15T13:16:44.522Z,40.75
2018-04-15T13:19:12.101Z,38.69
2018-04-15T13:21:39.677Z,36.48
2018-04-15T13:24:07.259Z,40.57
2018-04-15T13:26:34.965Z,37.40
2018-04-15T13:29:02.549Z,39.98
2018-04-15T13:31:30.125Z,40.16
2018-04-15T13:33:57.752Z,37.28
2018-04-15T13:36:25.329Z,39.08
2018-04-15T13:38:52.944Z,38.10
2018-04-15T13:41:20.593Z,38.73
2018-04-15T13:43:48.168Z,36.51
2018-04-15T13:46:15.758Z,37.59
2018-04-15T13:48:43.457Z,36.96
2018-04-15T13:51:11.037Z,35.44
2018-04-15T13:53:38.682Z,35.63
2018-04-15T13:56:06.256Z,37.57
2018-04-15T13:58:33.969Z,39.61
2018-04-15T14:01:01.583Z,40.34
2018-04-15T14:03:29.153Z,39.85
2018-04-15T14:05:56.758Z,40.54
2018-04-15T14:08:24.340Z,40.48
2018-04-15T14:10:51.950Z,39.62
2018-04-15T14:13:19.528Z,37.42
2018-04-15T14:15:47.105Z,36.19
2018-04-15T14:18:14.717Z,37.68
2018-04-15T14:20:42.428Z,38.65
2018-04-15T14:23:09.997Z,38.80
2018-04-15T14:25:37.645Z,39.39
2018-04-15T14:28:05.245Z,36.85
2018-04-15T14:30:32.830Z,35.77
2018-04-15T14:33:00.398Z,35.96
2018-04-15T14:35:27.989Z,37.54
2018-04-15T14:37:55.573Z,38.86
2018-04-15T14:40:23.230Z,37.10
2018-04-15T14:42:50.813Z,36.75
2018-04-15T14:45:18.392Z,38.29
2018-04-15T14:47:46.022Z,35.70
2018-04-15T14:50:13.627Z,35.22
2018-04-15T14:52:41.205Z,37.74
2018-04-15T14:55:09.694Z,34.00
2018-04-15T14:57:38.068Z,35.20
2018-04-15T15:00:05.763Z,38.01
2018-04-15T15:02:34.195Z,39.90
2018-04-15T15:05:01.775Z,35.82
2018-04-15T15:07:30.277Z,34.61
2018-04-15T15:09:57.857Z,36.91
2018-04-15T15:12:26.425Z,35.19
2018-04-15T15:14:54.005Z,35.76
2018-04-15T15:17:21.581Z,34.24
2018-04-15T15:19:50.033Z,34.22
2018-04-15T15:22:17.700Z,32.79
2018-04-15T15:24:45.306Z,34.65
2018-04-15T15:27:13.840Z,34.49
2018-04-15T15:29:41.420Z,33.91
2018-04-15T15:32:10.014Z,34.71
2018-04-15T15:34:37.645Z,33.63
2018-04-15T15:37:05.267Z,31.81
2018-04-15T15:39:32.841Z,36.15
2018-04-15T15:42:00.534Z,33.89
2018-04-15T15:44:28.124Z,37.39
2018-04-15T15:46:55.755Z,33.31
2018-04-15T15:49:23.343Z,31.50
2018-04-15T15:51:51.041Z,35.75
2018-04-15T15:54:20.140Z,43.01
2018-04-15T15:56:48.525Z,36.25
2018-04-15T15:59:16.580Z,35.58
2018-04-15T16:01:44.159Z,38.90
2018-04-15T16:04:12.673Z,43.32
2018-04-15T16:06:40.282Z,36.45
2018-04-15T16:09:08.752Z,45.84
2018-04-15T16:11:36.358Z,43.98
2018-04-15T16:14:03.966Z,43.32
2018-04-15T16:16:31.547Z,42.77
2018-04-15T16:18:59.127Z,46.29
2018-04-15T16:21:27.598Z,46.77
2018-04-15T16:23:55.173Z,46.15
2018-04-15T16:26:23.610Z,44.35
2018-04-15T16:28:51.185Z,43.30
2018-04-15T16:31:18.794Z,48.01
2018-04-15T16:33:46.371Z,43.01
2018-04-15T16:36:14.038Z,45.65
2018-04-15T16:38:41.613Z,43.65
2018-04-15T16:41:09.225Z,44.47
2018-04-15T16:43:36.845Z,45.05
2018-04-15T16:46:04.424Z,44.38
2018-04-15T16:48:32.048Z,42.99
2018-04-15T16:50:59.631Z,48.20
2018-04-15T16:53:27.349Z,46.10
2018-04-15T16:55:54.989Z,44.26
2018-04-15T16:58:22.703Z,45.55
2018-04-15T17:01:00.875Z,44.78
2018-04-15T17:03:29.254Z,45.67
2018-04-15T17:05:56.863Z,47.29
2018-04-15T17:08:24.533Z,47.45
2018-04-15T17:10:52.162Z,47.22
2018-04-15T17:13:19.766Z,47.22
2018-04-15T17:15:47.393Z,47.84
2018-04-15T17:18:15.016Z,48.21
2018-04-15T17:20:42.588Z,48.38
2018-04-15T17:23:10.211Z,49.15
2018-04-15T17:25:37.789Z,49.96
2018-04-15T17:28:05.445Z,50.04
2018-04-15T17:30:33.834Z,49.65
2018-04-15T17:33:01.412Z,49.98
2018-04-15T17:35:28.992Z,50.89
2018-04-15T17:37:56.565Z,51.02
2018-04-15T17:40:24.193Z,51.65
2018-04-15T17:42:51.897Z,52.19
2018-04-15T17:45:19.785Z,52.76
2018-04-15T17:47:47.427Z,53.39
2018-04-15T17:50:15.247Z,53.72
2018-04-15T17:52:42.862Z,54.47
2018-04-15T17:55:10.474Z,55.28
2018-04-15T17:57:38.178Z,55.95
2018-04-15T18:00:05.760Z,56.19
2018-04-15T18:02:33.400Z,56.19
2018-04-15T18:05:01.034Z,56.48
2018-04-15T18:07:29.449Z,57.20
2018-04-15T18:09:57.026Z,57.15
2018-04-15T18:12:25.614Z,57.57
2018-04-15T18:14:53.258Z,57.90
2018-04-15T18:17:20.953Z,58.55
2018-04-15T18:19:48.533Z,60.57
2018-04-15T18:22:16.195Z,62.08
2018-04-15T18:24:43.810Z,61.06
2018-04-15T18:27:11.466Z,60.56
2018-04-15T18:29:39.082Z,60.59
2018-04-15T18:32:06.660Z,60.99
2018-04-15T18:34:34.358Z,61.00
2018-04-15T18:37:02.044Z,60.91
2018-04-15T18:39:29.736Z,60.64
2018-04-15T18:41:57.347Z,60.20
2018-04-15T18:44:25.049Z,60.10
2018-04-15T18:46:52.631Z,60.21
2018-04-15T18:49:20.213Z,59.96
2018-04-15T18:51:47.899Z,59.94
2018-04-15T18:54:15.511Z,61.11
2018-04-15T18:56:43.126Z,62.43
2018-04-15T18:59:10.790Z,62.84
2018-04-15T19:01:38.606Z,62.79
2018-04-15T19:04:06.981Z,63.10
2018-04-15T19:06:35.418Z,63.15
2018-04-15T19:09:03.853Z,63.27
2018-04-15T19:11:31.425Z,65.65
2018-04-15T19:13:59.010Z,67.00
2018-04-15T19:16:27.537Z,68.93
2018-04-15T19:18:55.184Z,68.56
2018-04-15T19:21:22.824Z,67.23
2018-04-15T19:23:51.351Z,67.71
2018-04-15T19:26:19.225Z,68.08
2018-04-15T19:28:46.975Z,71.17
2018-04-15T19:31:14.898Z,70.10
2018-04-15T19:33:42.552Z,71.35
2018-04-15T19:36:11.135Z,72.12
2018-04-15T19:38:38.750Z,72.97
2018-04-15T19:41:06.349Z,73.10
2018-04-15T19:43:33.973Z,72.80
2018-04-15T19:46:01.560Z,72.68
2018-04-15T19:48:29.171Z,73.64
2018-04-15T19:50:56.834Z,73.32
2018-04-15T19:53:24.418Z,72.74
2018-04-15T19:55:52.045Z,72.49
2018-04-15T19:58:19.719Z,73.23
2018-04-15T20:00:47.327Z,73.51
2018-04-15T20:03:14.938Z,72.96
2018-04-15T20:05:42.599Z,72.73
2018-04-15T20:08:10.182Z,73.18
2018-04-15T20:10:37.825Z,73.54
2018-04-15T20:13:06.510Z,73.76
2018-04-15T20:15:34.906Z,74.36
2018-04-15T20:18:02.523Z,74.26
2018-04-15T20:20:30.898Z,73.93
2018-04-15T20:22:58.630Z,74.75
2018-04-15T20:25:26.299Z,76.71
2018-04-15T20:27:53.929Z,76.68
2018-04-15T20:30:21.532Z,77.06
2018-04-15T20:32:49.350Z,77.24
2018-04-15T20:35:16.937Z,78.57
2018-04-15T20:37:44.542Z,79.47
2018-04-15T20:40:12.129Z,79.67
2018-04-15T20:42:39.746Z,78.57
2018-04-15T20:45:07.329Z,77.75
2018-04-15T20:47:34.935Z,77.37
2018-04-15T20:50:02.582Z,77.92
2018-04-15T20:52:30.282Z,78.04
2018-04-15T20:54:57.942Z,77.62
2018-04-15T20:57:26.264Z,78.57
2018-04-15T20:59:53.854Z,78.12
2018-04-15T21:02:21.519Z,77.01
2018-04-15T21:04:50.741Z,77.93
2018-04-15T21:07:18.330Z,78.65
2018-04-15T21:09:45.914Z,78.78
2018-04-15T21:12:13.565Z,78.65
2018-04-15T21:14:41.157Z,78.75
2018-04-15T21:17:08.742Z,79.24
2018-04-15T21:19:37.234Z,79.29
2018-04-15T21:22:04.835Z,79.02
2018-04-15T21:24:33.242Z,79.21
2018-04-15T21:27:00.962Z,79.46
2018-04-15T21:29:28.555Z,81.29
2018-04-15T21:31:56.137Z,80.90
2018-04-15T21:34:23.762Z,80.16
2018-04-15T21:36:52.078Z,81.22
2018-04-15T21:39:19.695Z,81.55
2018-04-15T21:41:47.307Z,79.84
2018-04-15T21:44:14.893Z,79.98
2018-04-15T21:46:42.529Z,79.70
2018-04-15T21:49:10.182Z,80.13
2018-04-15T21:51:37.843Z,80.72
2018-04-15T21:54:27.437Z,80.98
2018-04-15T21:56:55.140Z,79.58
2018-04-15T21:59:22.851Z,80.24
2018-04-15T22:01:50.437Z,79.81
2018-04-15T22:04:18.037Z,80.24
2018-04-15T22:06:45.684Z,80.14
2018-04-15T22:09:13.294Z,80.51
2018-04-15T22:11:52.876Z,80.55
2018-04-15T22:14:20.459Z,79.51
2018-04-15T22:16:48.069Z,79.55
2018-04-15T22:19:15.728Z,79.44
2018-04-15T22:21:44.383Z,79.53
2018-04-15T22:24:11.962Z,81.22
2018-04-15T22:26:39.603Z,81.08
2018-04-15T22:29:07.184Z,80.44
2018-04-15T22:31:34.854Z,80.60
2018-04-15T22:34:02.425Z,80.66
2018-04-15T22:36:30.006Z,80.30
2018-04-15T22:38:57.626Z,80.85
2018-04-15T22:41:25.337Z,80.55
2018-04-15T22:43:52.914Z,81.02
2018-04-15T22:46:20.524Z,81.55
2018-04-15T22:48:48.145Z,80.70
2018-04-15T22:51:16.657Z,80.85
2018-04-15T22:53:44.289Z,80.63
2018-04-15T22:56:12.661Z,80.55
2018-04-15T22:58:45.948Z,80.83
2018-04-15T23:01:13.558Z,80.98
2018-04-15T23:03:41.180Z,81.29
2018-04-15T23:06:08.835Z,81.52
2018-04-15T23:08:36.421Z,81.53
2018-04-15T23:11:04.022Z,82.19
2018-04-15T23:13:31.607Z,81.64
2018-04-15T23:15:59.193Z,81.67
2018-04-15T23:18:26.901Z,81.99
2018-04-15T23:20:54.489Z,82.03
2018-04-15T23:23:22.876Z,82.00
2018-04-15T23:25:50.461Z,81.34
2018-04-15T23:28:18.038Z,82.04
2018-04-15T23:30:45.648Z,82.14
2018-04-15T23:33:13.229Z,83.26
2018-04-15T23:35:40.809Z,82.73
2018-04-15T23:38:08.467Z,82.79
2018-04-15T23:40:36.044Z,83.36
2018-04-15T23:43:03.624Z,83.69
2018-04-15T23:45:32.073Z,83.96
2018-04-15T23:47:59.653Z,83.97
2018-04-15T23:50:27.282Z,84.12
2018-04-15T23:52:54.864Z,83.87
2018-04-15T23:55:22.446Z,84.23
2018-04-15T23:57:50.048Z,83.90
